sensor_id;sensor_type;location;lat;lon;timestamp;temperature;humidity
17948;DHT22;9099;47.958;11.366;2023-07-29T00:01:55;18.20;99.90
17948;DHT22;9099;47.958;11.366;2023-07-29T00:04:22;18.30;99.90
17948;DHT22;9099;47.958;11.366;2023-07-29T00:06:48;18.30;99.90
17948;DHT22;9099;47.958;11.366;2023-07-29T00:09:15;18.20;99.90
17948;DHT22;9099;47.958;11.366;2023-07-29T00:11:42;18.30;99.90
17948;DHT22;9099;47.958;11.366;2023-07-29T00:14:09;18.30;99.90
17948;DHT22;9099;47.958;11.366;2023-07-29T00:16:37;18.20;99.90
17948;DHT22;9099;47.958;11.366;2023-07-29T00:19:04;18.20;99.90
17948;DHT22;9099;47.958;11.366;2023-07-29T00:21:31;18.10;99.90
17948;DHT22;9099;47.958;11.366;2023-07-29T00:23:57;18.10;99.90
17948;DHT22;9099;47.958;11.366;2023-07-29T00:26:26;18.00;99.90
17948;DHT22;9099;47.958;11.366;2023-07-29T00:28:54;17.90;99.90
17948;DHT22;9099;47.958;11.366;2023-07-29T00:31:21;17.80;99.90
17948;DHT22;9099;47.958;11.366;2023-07-29T00:33:49;17.90;99.90
17948;DHT22;9099;47.958;11.366;2023-07-29T00:36:18;17.90;99.90
17948;DHT22;9099;47.958;11.366;2023-07-29T00:38:45;17.90;99.90
17948;DHT22;9099;47.958;11.366;2023-07-29T00:41:12;17.90;99.90
17948;DHT22;9099;47.958;11.366;2023-07-29T00:43:40;17.80;99.90
17948;DHT22;9099;47.958;11.366;2023-07-29T00:46:07;17.80;99.90
17948;DHT22;9099;47.958;11.366;2023-07-29T00:48:35;17.80;99.90
17948;DHT22;9099;47.958;11.366;2023-07-29T00:51:03;17.80;99.90
17948;DHT22;9099;47.958;11.366;2023-07-29T00:53:30;17.80;99.90
17948;DHT22;9099;47.958;11.366;2023-07-29T00:55:57;17.80;99.90
17948;DHT22;9099;47.958;11.366;2023-07-29T00:58:24;17.80;99.90
17948;DHT22;9099;47.958;11.366;2023-07-29T01:00:51;17.70;99.90
17948;DHT22;9099;47.958;11.366;2023-07-29T01:03:19;17.60;99.90
17948;DHT22;9099;47.958;11.366;2023-07-29T01:05:55;17.60;99.90
17948;DHT22;9099;47.958;11.366;2023-07-29T01:08:31;17.50;99.90
17948;DHT22;9099;47.958;11.366;2023-07-29T01:11:07;17.50;99.90
17948;DHT22;9099;47.958;11.366;2023-07-29T01:13:44;17.50;99.90
17948;DHT22;9099;47.958;11.366;2023-07-29T01:16:17;17.50;99.90
17948;DHT22;9099;47.958;11.366;2023-07-29T01:18:47;17.40;99.90
17948;DHT22;9099;47.958;11.366;2023-07-29T01:21:17;17.40;99.90
17948;DHT22;9099;47.958;11.366;2023-07-29T01:23:46;17.40;99.90
17948;DHT22;9099;47.958;11.366;2023-07-29T01:26:12;17.40;99.90
17948;DHT22;9099;47.958;11.366;2023-07-29T01:28:39;17.40;99.90
17948;DHT22;9099;47.958;11.366;2023-07-29T01:31:11;17.40;99.90
17948;DHT22;9099;47.958;11.366;2023-07-29T01:33:42;17.30;99.90
17948;DHT22;9099;47.958;11.366;2023-07-29T01:36:15;17.30;99.90
17948;DHT22;9099;47.958;11.366;2023-07-29T01:38:45;17.20;99.90
17948;DHT22;9099;47.958;11.366;2023-07-29T01:41:14;17.10;99.90
17948;DHT22;9099;47.958;11.366;2023-07-29T01:43:43;17.10;99.90
17948;DHT22;9099;47.958;11.366;2023-07-29T01:46:10;17.00;99.90
17948;DHT22;9099;47.958;11.366;2023-07-29T01:48:37;16.90;99.90
17948;DHT22;9099;47.958;11.366;2023-07-29T01:51:05;16.90;99.90
17948;DHT22;9099;47.958;11.366;2023-07-29T01:53:32;16.90;99.90
17948;DHT22;9099;47.958;11.366;2023-07-29T01:56:01;16.90;99.90
17948;DHT22;9099;47.958;11.366;2023-07-29T01:58:28;16.90;99.90
17948;DHT22;9099;47.958;11.366;2023-07-29T02:00:55;16.80;99.90
17948;DHT22;9099;47.958;11.366;2023-07-29T02:03:22;16.80;99.90
17948;DHT22;9099;47.958;11.366;2023-07-29T02:05:48;16.90;99.90
17948;DHT22;9099;47.958;11.366;2023-07-29T02:08:15;16.80;99.90
17948;DHT22;9099;47.958;11.366;2023-07-29T02:10:42;16.80;99.90
17948;DHT22;9099;47.958;11.366;2023-07-29T02:13:12;16.80;99.90
17948;DHT22;9099;47.958;11.366;2023-07-29T02:15:38;16.80;99.90
17948;DHT22;9099;47.958;11.366;2023-07-29T02:18:05;16.80;99.90
17948;DHT22;9099;47.958;11.366;2023-07-29T02:20:32;16.80;99.90
17948;DHT22;9099;47.958;11.366;2023-07-29T02:22:59;16.90;99.90
17948;DHT22;9099;47.958;11.366;2023-07-29T02:25:26;16.90;99.90
17948;DHT22;9099;47.958;11.366;2023-07-29T02:27:53;16.90;99.90
17948;DHT22;9099;47.958;11.366;2023-07-29T02:30:21;17.00;99.90
17948;DHT22;9099;47.958;11.366;2023-07-29T02:32:48;17.00;99.90
17948;DHT22;9099;47.958;11.366;2023-07-29T02:35:15;17.00;99.90
17948;DHT22;9099;47.958;11.366;2023-07-29T02:37:42;16.90;99.90
17948;DHT22;9099;47.958;11.366;2023-07-29T02:40:10;16.80;99.90
17948;DHT22;9099;47.958;11.366;2023-07-29T02:42:37;16.80;99.90
17948;DHT22;9099;47.958;11.366;2023-07-29T02:45:04;16.90;99.90
17948;DHT22;9099;47.958;11.366;2023-07-29T02:47:36;16.90;99.90
17948;DHT22;9099;47.958;11.366;2023-07-29T02:50:03;16.90;99.90
17948;DHT22;9099;47.958;11.366;2023-07-29T02:52:30;16.90;99.90
17948;DHT22;9099;47.958;11.366;2023-07-29T02:54:57;16.80;99.90
17948;DHT22;9099;47.958;11.366;2023-07-29T02:57:24;16.90;99.90
17948;DHT22;9099;47.958;11.366;2023-07-29T02:59:51;16.90;99.90
17948;DHT22;9099;47.958;11.366;2023-07-29T03:02:17;17.00;99.90
17948;DHT22;9099;47.958;11.366;2023-07-29T03:04:47;17.00;99.90
17948;DHT22;9099;47.958;11.366;2023-07-29T03:07:14;17.00;99.90
17948;DHT22;9099;47.958;11.366;2023-07-29T03:09:41;17.00;99.90
17948;DHT22;9099;47.958;11.366;2023-07-29T03:12:09;16.90;99.90
17948;DHT22;9099;47.958;11.366;2023-07-29T03:14:36;16.90;99.90
17948;DHT22;9099;47.958;11.366;2023-07-29T03:17:03;16.90;99.90
17948;DHT22;9099;47.958;11.366;2023-07-29T03:19:30;16.80;99.90
17948;DHT22;9099;47.958;11.366;2023-07-29T03:21:58;16.80;99.90
17948;DHT22;9099;47.958;11.366;2023-07-29T03:24:25;16.70;99.90
17948;DHT22;9099;47.958;11.366;2023-07-29T03:26:52;16.60;99.90
17948;DHT22;9099;47.958;11.366;2023-07-29T03:29:19;16.60;99.90
17948;DHT22;9099;47.958;11.366;2023-07-29T03:31:46;16.60;99.90
17948;DHT22;9099;47.958;11.366;2023-07-29T03:34:13;16.60;99.90
17948;DHT22;9099;47.958;11.366;2023-07-29T03:36:40;16.60;99.90
17948;DHT22;9099;47.958;11.366;2023-07-29T03:39:08;16.60;99.90
17948;DHT22;9099;47.958;11.366;2023-07-29T03:41:35;16.70;99.90
17948;DHT22;9099;47.958;11.366;2023-07-29T03:44:02;16.60;99.90
17948;DHT22;9099;47.958;11.366;2023-07-29T03:46:29;16.70;99.90
17948;DHT22;9099;47.958;11.366;2023-07-29T03:48:55;16.70;99.90
17948;DHT22;9099;47.958;11.366;2023-07-29T03:51:22;16.70;99.90
17948;DHT22;9099;47.958;11.366;2023-07-29T03:53:50;16.80;99.90
17948;DHT22;9099;47.958;11.366;2023-07-29T03:56:18;16.90;99.90
17948;DHT22;9099;47.958;11.366;2023-07-29T03:58:46;16.90;99.90
17948;DHT22;9099;47.958;11.366;2023-07-29T04:01:13;17.00;99.90
17948;DHT22;9099;47.958;11.366;2023-07-29T04:03:40;17.00;99.90
17948;DHT22;9099;47.958;11.366;2023-07-29T04:06:07;17.10;99.90
17948;DHT22;9099;47.958;11.366;2023-07-29T04:08:34;17.10;99.90
17948;DHT22;9099;47.958;11.366;2023-07-29T04:11:01;17.10;99.90
17948;DHT22;9099;47.958;11.366;2023-07-29T04:13:29;17.10;99.90
17948;DHT22;9099;47.958;11.366;2023-07-29T04:15:56;17.10;99.90
17948;DHT22;9099;47.958;11.366;2023-07-29T04:18:22;17.10;99.90
17948;DHT22;9099;47.958;11.366;2023-07-29T04:20:49;17.10;99.90
17948;DHT22;9099;47.958;11.366;2023-07-29T04:23:16;17.10;99.90
17948;DHT22;9099;47.958;11.366;2023-07-29T04:25:43;17.10;99.90
17948;DHT22;9099;47.958;11.366;2023-07-29T04:28:10;17.20;99.90
17948;DHT22;9099;47.958;11.366;2023-07-29T04:30:38;17.20;99.90
17948;DHT22;9099;47.958;11.366;2023-07-29T04:33:04;17.20;99.90
17948;DHT22;9099;47.958;11.366;2023-07-29T04:35:31;17.20;99.90
17948;DHT22;9099;47.958;11.366;2023-07-29T04:37:58;17.30;99.90
17948;DHT22;9099;47.958;11.366;2023-07-29T04:40:25;17.30;99.90
17948;DHT22;9099;47.958;11.366;2023-07-29T04:42:52;17.40;99.90
17948;DHT22;9099;47.958;11.366;2023-07-29T04:45:18;17.40;99.90
17948;DHT22;9099;47.958;11.366;2023-07-29T04:47:47;17.40;99.90
17948;DHT22;9099;47.958;11.366;2023-07-29T04:50:13;17.50;99.90
17948;DHT22;9099;47.958;11.366;2023-07-29T04:52:40;17.50;99.90
17948;DHT22;9099;47.958;11.366;2023-07-29T04:55:07;17.50;99.90
17948;DHT22;9099;47.958;11.366;2023-07-29T04:57:34;17.60;99.90
17948;DHT22;9099;47.958;11.366;2023-07-29T05:00:03;17.60;99.90
17948;DHT22;9099;47.958;11.366;2023-07-29T05:02:29;17.70;99.90
17948;DHT22;9099;47.958;11.366;2023-07-29T05:04:58;17.80;99.90
17948;DHT22;9099;47.958;11.366;2023-07-29T05:07:24;18.00;99.90
17948;DHT22;9099;47.958;11.366;2023-07-29T05:09:51;18.10;99.90
17948;DHT22;9099;47.958;11.366;2023-07-29T05:12:18;18.30;99.90
17948;DHT22;9099;47.958;11.366;2023-07-29T05:14:45;18.50;99.90
17948;DHT22;9099;47.958;11.366;2023-07-29T05:17:12;18.50;99.90
17948;DHT22;9099;47.958;11.366;2023-07-29T05:19:38;18.60;99.90
17948;DHT22;9099;47.958;11.366;2023-07-29T05:22:07;18.60;99.90
17948;DHT22;9099;47.958;11.366;2023-07-29T05:24:33;18.70;99.90
17948;DHT22;9099;47.958;11.366;2023-07-29T05:27:00;18.80;99.90
17948;DHT22;9099;47.958;11.366;2023-07-29T05:29:27;18.90;99.90
17948;DHT22;9099;47.958;11.366;2023-07-29T05:31:54;19.00;99.90
17948;DHT22;9099;47.958;11.366;2023-07-29T05:34:22;19.10;99.90
17948;DHT22;9099;47.958;11.366;2023-07-29T05:36:49;19.10;99.90
17948;DHT22;9099;47.958;11.366;2023-07-29T05:39:17;19.20;99.90
17948;DHT22;9099;47.958;11.366;2023-07-29T05:41:44;19.20;99.90
17948;DHT22;9099;47.958;11.366;2023-07-29T05:44:11;19.20;99.90
17948;DHT22;9099;47.958;11.366;2023-07-29T05:46:38;19.00;99.90
17948;DHT22;9099;47.958;11.366;2023-07-29T05:49:04;18.80;99.90
17948;DHT22;9099;47.958;11.366;2023-07-29T05:51:31;18.60;99.90
17948;DHT22;9099;47.958;11.366;2023-07-29T05:53:58;18.50;99.90
17948;DHT22;9099;47.958;11.366;2023-07-29T05:56:26;18.40;99.90
17948;DHT22;9099;47.958;11.366;2023-07-29T05:58:53;18.40;99.90
17948;DHT22;9099;47.958;11.366;2023-07-29T06:01:20;18.50;99.90
17948;DHT22;9099;47.958;11.366;2023-07-29T06:03:47;18.40;99.90
17948;DHT22;9099;47.958;11.366;2023-07-29T06:06:14;18.50;99.90
17948;DHT22;9099;47.958;11.366;2023-07-29T06:08:41;18.50;99.90
17948;DHT22;9099;47.958;11.366;2023-07-29T06:11:08;18.60;99.90
17948;DHT22;9099;47.958;11.366;2023-07-29T06:13:36;18.60;99.90
17948;DHT22;9099;47.958;11.366;2023-07-29T06:16:03;18.80;99.90
17948;DHT22;9099;47.958;11.366;2023-07-29T06:18:30;18.80;99.90
17948;DHT22;9099;47.958;11.366;2023-07-29T06:20:57;19.00;99.90
17948;DHT22;9099;47.958;11.366;2023-07-29T06:23:24;19.10;99.90
17948;DHT22;9099;47.958;11.366;2023-07-29T06:25:50;19.20;99.90
17948;DHT22;9099;47.958;11.366;2023-07-29T06:28:17;19.20;99.90
17948;DHT22;9099;47.958;11.366;2023-07-29T06:30:45;19.20;99.90
17948;DHT22;9099;47.958;11.366;2023-07-29T06:33:12;19.10;99.90
17948;DHT22;9099;47.958;11.366;2023-07-29T06:35:39;19.00;99.90
17948;DHT22;9099;47.958;11.366;2023-07-29T06:38:06;18.90;99.90
17948;DHT22;9099;47.958;11.366;2023-07-29T06:40:32;18.80;99.90
17948;DHT22;9099;47.958;11.366;2023-07-29T06:42:59;18.70;99.90
17948;DHT22;9099;47.958;11.366;2023-07-29T06:45:26;18.60;99.90
17948;DHT22;9099;47.958;11.366;2023-07-29T06:47:55;18.60;99.90
17948;DHT22;9099;47.958;11.366;2023-07-29T06:50:21;18.40;99.90
17948;DHT22;9099;47.958;11.366;2023-07-29T06:52:48;18.40;99.90
17948;DHT22;9099;47.958;11.366;2023-07-29T06:55:15;18.40;99.90
17948;DHT22;9099;47.958;11.366;2023-07-29T06:57:42;18.50;99.90
17948;DHT22;9099;47.958;11.366;2023-07-29T07:00:09;18.50;99.90
17948;DHT22;9099;47.958;11.366;2023-07-29T07:02:36;18.50;99.90
17948;DHT22;9099;47.958;11.366;2023-07-29T07:05:05;18.50;99.90
17948;DHT22;9099;47.958;11.366;2023-07-29T07:07:32;18.50;99.90
17948;DHT22;9099;47.958;11.366;2023-07-29T07:09:59;18.60;99.90
17948;DHT22;9099;47.958;11.366;2023-07-29T07:12:26;18.70;99.90
17948;DHT22;9099;47.958;11.366;2023-07-29T07:14:52;18.80;99.90
17948;DHT22;9099;47.958;11.366;2023-07-29T07:17:19;19.00;99.90
17948;DHT22;9099;47.958;11.366;2023-07-29T07:19:46;19.20;99.90
17948;DHT22;9099;47.958;11.366;2023-07-29T07:22:14;19.20;99.90
17948;DHT22;9099;47.958;11.366;2023-07-29T07:24:41;19.30;99.90
17948;DHT22;9099;47.958;11.366;2023-07-29T07:27:08;19.30;99.90
17948;DHT22;9099;47.958;11.366;2023-07-29T07:29:35;19.50;99.90
17948;DHT22;9099;47.958;11.366;2023-07-29T07:32:02;19.40;99.90
17948;DHT22;9099;47.958;11.366;2023-07-29T07:34:29;19.40;99.90
17948;DHT22;9099;47.958;11.366;2023-07-29T07:40:19;19.70;99.90
17948;DHT22;9099;47.958;11.366;2023-07-29T07:42:46;19.70;99.90
17948;DHT22;9099;47.958;11.366;2023-07-29T07:45:13;19.70;99.90
17948;DHT22;9099;47.958;11.366;2023-07-29T07:47:39;19.80;99.90
17948;DHT22;9099;47.958;11.366;2023-07-29T07:50:07;19.80;99.90
17948;DHT22;9099;47.958;11.366;2023-07-29T07:52:34;19.90;99.90
17948;DHT22;9099;47.958;11.366;2023-07-29T07:55:00;20.00;99.90
17948;DHT22;9099;47.958;11.366;2023-07-29T07:57:29;20.20;99.90
17948;DHT22;9099;47.958;11.366;2023-07-29T07:59:55;20.20;99.90
17948;DHT22;9099;47.958;11.366;2023-07-29T08:02:22;20.30;99.90
17948;DHT22;9099;47.958;11.366;2023-07-29T08:04:49;20.30;99.90
17948;DHT22;9099;47.958;11.366;2023-07-29T08:07:16;20.30;99.90
17948;DHT22;9099;47.958;11.366;2023-07-29T08:09:43;20.30;99.90
17948;DHT22;9099;47.958;11.366;2023-07-29T08:12:10;20.30;99.90
17948;DHT22;9099;47.958;11.366;2023-07-29T08:14:38;20.20;99.90
17948;DHT22;9099;47.958;11.366;2023-07-29T08:17:05;20.30;99.90
17948;DHT22;9099;47.958;11.366;2023-07-29T08:19:31;20.30;99.90
17948;DHT22;9099;47.958;11.366;2023-07-29T08:22:02;20.40;99.90
17948;DHT22;9099;47.958;11.366;2023-07-29T08:24:29;20.40;99.90
17948;DHT22;9099;47.958;11.366;2023-07-29T08:26:55;20.40;99.90
17948;DHT22;9099;47.958;11.366;2023-07-29T08:29:22;20.40;99.90
17948;DHT22;9099;47.958;11.366;2023-07-29T08:31:50;20.40;99.90
17948;DHT22;9099;47.958;11.366;2023-07-29T08:34:18;20.30;99.90
17948;DHT22;9099;47.958;11.366;2023-07-29T08:36:44;20.20;99.90
17948;DHT22;9099;47.958;11.366;2023-07-29T08:39:11;20.30;99.90
17948;DHT22;9099;47.958;11.366;2023-07-29T08:41:45;20.30;99.90
17948;DHT22;9099;47.958;11.366;2023-07-29T08:44:20;20.40;99.90
17948;DHT22;9099;47.958;11.366;2023-07-29T08:46:47;20.40;99.90
17948;DHT22;9099;47.958;11.366;2023-07-29T08:49:16;20.40;99.90
17948;DHT22;9099;47.958;11.366;2023-07-29T08:51:45;20.60;99.90
17948;DHT22;9099;47.958;11.366;2023-07-29T08:54:13;20.80;99.90
17948;DHT22;9099;47.958;11.366;2023-07-29T08:56:40;21.10;99.90
17948;DHT22;9099;47.958;11.366;2023-07-29T08:59:08;21.20;99.90
17948;DHT22;9099;47.958;11.366;2023-07-29T09:01:36;21.40;99.90
17948;DHT22;9099;47.958;11.366;2023-07-29T09:04:03;21.70;99.90
17948;DHT22;9099;47.958;11.366;2023-07-29T09:06:31;21.90;99.90
17948;DHT22;9099;47.958;11.366;2023-07-29T09:08:59;22.10;99.90
17948;DHT22;9099;47.958;11.366;2023-07-29T09:11:26;22.50;99.90
17948;DHT22;9099;47.958;11.366;2023-07-29T09:13:53;23.20;99.90
17948;DHT22;9099;47.958;11.366;2023-07-29T09:16:21;23.80;99.90
17948;DHT22;9099;47.958;11.366;2023-07-29T09:18:48;24.00;99.90
17948;DHT22;9099;47.958;11.366;2023-07-29T09:21:17;24.10;99.90
17948;DHT22;9099;47.958;11.366;2023-07-29T09:23:45;24.40;99.90
17948;DHT22;9099;47.958;11.366;2023-07-29T09:26:12;24.50;99.90
17948;DHT22;9099;47.958;11.366;2023-07-29T09:28:40;24.50;99.90
17948;DHT22;9099;47.958;11.366;2023-07-29T09:31:07;24.50;99.90
17948;DHT22;9099;47.958;11.366;2023-07-29T09:33:45;24.90;99.90
17948;DHT22;9099;47.958;11.366;2023-07-29T09:36:11;24.90;99.90
17948;DHT22;9099;47.958;11.366;2023-07-29T09:38:38;24.90;99.90
17948;DHT22;9099;47.958;11.366;2023-07-29T09:41:07;25.10;99.90
17948;DHT22;9099;47.958;11.366;2023-07-29T09:43:35;25.10;99.90
17948;DHT22;9099;47.958;11.366;2023-07-29T09:46:02;24.70;99.90
17948;DHT22;9099;47.958;11.366;2023-07-29T09:48:32;24.60;99.90
17948;DHT22;9099;47.958;11.366;2023-07-29T09:50:59;24.90;99.90
17948;DHT22;9099;47.958;11.366;2023-07-29T09:53:26;25.30;99.90
17948;DHT22;9099;47.958;11.366;2023-07-29T09:55:53;25.90;99.90
17948;DHT22;9099;47.958;11.366;2023-07-29T09:58:26;26.10;99.90
17948;DHT22;9099;47.958;11.366;2023-07-29T10:00:53;26.50;99.90
17948;DHT22;9099;47.958;11.366;2023-07-29T10:03:22;26.70;99.90
17948;DHT22;9099;47.958;11.366;2023-07-29T10:05:49;26.60;99.90
17948;DHT22;9099;47.958;11.366;2023-07-29T10:08:18;26.80;99.90
17948;DHT22;9099;47.958;11.366;2023-07-29T10:10:45;27.30;99.90
17948;DHT22;9099;47.958;11.366;2023-07-29T10:13:12;27.30;99.90
17948;DHT22;9099;47.958;11.366;2023-07-29T10:15:41;27.30;99.90
17948;DHT22;9099;47.958;11.366;2023-07-29T10:18:08;27.60;99.90
17948;DHT22;9099;47.958;11.366;2023-07-29T10:20:35;28.00;99.90
17948;DHT22;9099;47.958;11.366;2023-07-29T10:23:03;28.50;99.90
17948;DHT22;9099;47.958;11.366;2023-07-29T10:25:38;29.20;99.90
17948;DHT22;9099;47.958;11.366;2023-07-29T10:28:07;29.70;99.90
17948;DHT22;9099;47.958;11.366;2023-07-29T10:30:34;30.20;99.90
17948;DHT22;9099;47.958;11.366;2023-07-29T10:33:04;30.20;99.90
17948;DHT22;9099;47.958;11.366;2023-07-29T10:35:32;30.20;99.90
17948;DHT22;9099;47.958;11.366;2023-07-29T10:38:00;29.90;99.90
17948;DHT22;9099;47.958;11.366;2023-07-29T10:40:43;30.00;99.90
17948;DHT22;9099;47.958;11.366;2023-07-29T10:43:11;29.80;99.90
17948;DHT22;9099;47.958;11.366;2023-07-29T10:45:40;29.60;99.90
17948;DHT22;9099;47.958;11.366;2023-07-29T10:48:10;29.10;99.90
17948;DHT22;9099;47.958;11.366;2023-07-29T10:50:38;28.50;99.90
17948;DHT22;9099;47.958;11.366;2023-07-29T10:53:05;27.90;99.90
17948;DHT22;9099;47.958;11.366;2023-07-29T10:55:33;27.50;99.90
17948;DHT22;9099;47.958;11.366;2023-07-29T10:58:12;27.10;99.90
17948;DHT22;9099;47.958;11.366;2023-07-29T11:00:40;27.00;99.90
17948;DHT22;9099;47.958;11.366;2023-07-29T11:03:09;26.70;99.90
17948;DHT22;9099;47.958;11.366;2023-07-29T11:05:44;26.40;99.90
17948;DHT22;9099;47.958;11.366;2023-07-29T11:08:22;26.40;99.90
17948;DHT22;9099;47.958;11.366;2023-07-29T11:11:03;26.60;99.90
17948;DHT22;9099;47.958;11.366;2023-07-29T11:13:32;26.40;99.90
17948;DHT22;9099;47.958;11.366;2023-07-29T11:15:59;26.30;99.90
17948;DHT22;9099;47.958;11.366;2023-07-29T11:18:29;26.60;99.90
17948;DHT22;9099;47.958;11.366;2023-07-29T11:20:57;26.90;99.90
17948;DHT22;9099;47.958;11.366;2023-07-29T11:23:29;26.80;99.90
17948;DHT22;9099;47.958;11.366;2023-07-29T11:25:56;26.80;99.90
17948;DHT22;9099;47.958;11.366;2023-07-29T11:28:24;26.80;99.90
17948;DHT22;9099;47.958;11.366;2023-07-29T11:30:51;26.70;99.90
17948;DHT22;9099;47.958;11.366;2023-07-29T11:33:19;26.70;99.90
17948;DHT22;9099;47.958;11.366;2023-07-29T11:35:47;26.60;99.90
17948;DHT22;9099;47.958;11.366;2023-07-29T11:38:18;26.60;99.90
17948;DHT22;9099;47.958;11.366;2023-07-29T11:40:54;26.50;99.90
17948;DHT22;9099;47.958;11.366;2023-07-29T11:43:21;26.40;99.90
17948;DHT22;9099;47.958;11.366;2023-07-29T11:45:48;26.30;99.90
17948;DHT22;9099;47.958;11.366;2023-07-29T11:48:15;26.30;99.90
17948;DHT22;9099;47.958;11.366;2023-07-29T11:50:42;26.40;99.90
17948;DHT22;9099;47.958;11.366;2023-07-29T11:53:11;26.40;99.90
17948;DHT22;9099;47.958;11.366;2023-07-29T11:55:38;26.30;99.90
17948;DHT22;9099;47.958;11.366;2023-07-29T11:58:05;26.20;99.90
17948;DHT22;9099;47.958;11.366;2023-07-29T12:00:32;26.40;99.90
17948;DHT22;9099;47.958;11.366;2023-07-29T12:03:00;27.00;99.90
17948;DHT22;9099;47.958;11.366;2023-07-29T12:05:27;27.40;99.90
17948;DHT22;9099;47.958;11.366;2023-07-29T12:07:54;27.70;99.90
17948;DHT22;9099;47.958;11.366;2023-07-29T12:10:22;28.40;99.90
17948;DHT22;9099;47.958;11.366;2023-07-29T12:12:50;28.70;99.90
17948;DHT22;9099;47.958;11.366;2023-07-29T12:15:24;28.70;99.90
17948;DHT22;9099;47.958;11.366;2023-07-29T12:17:54;28.20;99.90
17948;DHT22;9099;47.958;11.366;2023-07-29T12:20:23;27.90;99.90
17948;DHT22;9099;47.958;11.366;2023-07-29T12:22:54;28.00;99.90
17948;DHT22;9099;47.958;11.366;2023-07-29T12:25:22;27.90;99.90
17948;DHT22;9099;47.958;11.366;2023-07-29T12:27:49;27.70;99.90
17948;DHT22;9099;47.958;11.366;2023-07-29T12:30:19;28.10;99.90
17948;DHT22;9099;47.958;11.366;2023-07-29T12:32:47;28.10;99.90
17948;DHT22;9099;47.958;11.366;2023-07-29T12:35:14;27.90;99.90
17948;DHT22;9099;47.958;11.366;2023-07-29T12:37:41;27.80;99.90
17948;DHT22;9099;47.958;11.366;2023-07-29T12:42:53;27.60;99.90
17948;DHT22;9099;47.958;11.366;2023-07-29T12:45:20;27.40;99.90
17948;DHT22;9099;47.958;11.366;2023-07-29T12:47:48;27.30;99.90
17948;DHT22;9099;47.958;11.366;2023-07-29T12:50:15;27.20;99.90
17948;DHT22;9099;47.958;11.366;2023-07-29T12:52:42;27.70;99.90
17948;DHT22;9099;47.958;11.366;2023-07-29T12:55:09;27.90;99.90
17948;DHT22;9099;47.958;11.366;2023-07-29T12:57:39;28.10;99.90
17948;DHT22;9099;47.958;11.366;2023-07-29T13:00:09;27.80;99.90
17948;DHT22;9099;47.958;11.366;2023-07-29T13:02:36;27.70;99.90
17948;DHT22;9099;47.958;11.366;2023-07-29T13:05:04;27.60;99.90
17948;DHT22;9099;47.958;11.366;2023-07-29T13:07:31;27.40;99.90
17948;DHT22;9099;47.958;11.366;2023-07-29T13:09:58;27.20;99.90
17948;DHT22;9099;47.958;11.366;2023-07-29T13:12:25;27.10;99.90
17948;DHT22;9099;47.958;11.366;2023-07-29T13:14:52;27.10;99.90
17948;DHT22;9099;47.958;11.366;2023-07-29T13:17:21;27.20;99.90
17948;DHT22;9099;47.958;11.366;2023-07-29T13:19:48;27.30;99.90
17948;DHT22;9099;47.958;11.366;2023-07-29T13:22:15;27.50;99.90
17948;DHT22;9099;47.958;11.366;2023-07-29T13:24:42;28.20;99.90
17948;DHT22;9099;47.958;11.366;2023-07-29T13:27:09;28.20;99.90
17948;DHT22;9099;47.958;11.366;2023-07-29T13:29:36;27.90;99.90
17948;DHT22;9099;47.958;11.366;2023-07-29T13:32:03;27.70;99.90
17948;DHT22;9099;47.958;11.366;2023-07-29T13:34:31;27.40;99.90
17948;DHT22;9099;47.958;11.366;2023-07-29T13:36:59;27.20;99.90
17948;DHT22;9099;47.958;11.366;2023-07-29T13:39:26;27.10;99.90
17948;DHT22;9099;47.958;11.366;2023-07-29T13:41:54;27.10;99.90
17948;DHT22;9099;47.958;11.366;2023-07-29T13:44:21;27.00;99.90
17948;DHT22;9099;47.958;11.366;2023-07-29T13:46:47;26.70;99.90
17948;DHT22;9099;47.958;11.366;2023-07-29T13:49:14;26.50;99.90
17948;DHT22;9099;47.958;11.366;2023-07-29T13:51:42;26.60;99.90
17948;DHT22;9099;47.958;11.366;2023-07-29T13:54:09;26.60;99.90
17948;DHT22;9099;47.958;11.366;2023-07-29T13:56:36;26.60;99.90
17948;DHT22;9099;47.958;11.366;2023-07-29T13:59:03;26.60;99.90
17948;DHT22;9099;47.958;11.366;2023-07-29T14:01:30;26.40;99.90
17948;DHT22;9099;47.958;11.366;2023-07-29T14:03:56;26.20;99.90
17948;DHT22;9099;47.958;11.366;2023-07-29T14:06:23;26.10;99.90
17948;DHT22;9099;47.958;11.366;2023-07-29T14:08:51;26.20;99.90
17948;DHT22;9099;47.958;11.366;2023-07-29T14:11:18;26.10;99.90
17948;DHT22;9099;47.958;11.366;2023-07-29T14:13:45;26.00;99.90
17948;DHT22;9099;47.958;11.366;2023-07-29T14:16:12;25.90;99.90
17948;DHT22;9099;47.958;11.366;2023-07-29T14:18:39;25.60;99.90
17948;DHT22;9099;47.958;11.366;2023-07-29T14:21:05;25.40;99.90
17948;DHT22;9099;47.958;11.366;2023-07-29T14:23:32;25.20;99.90
17948;DHT22;9099;47.958;11.366;2023-07-29T14:26:00;24.90;99.90
17948;DHT22;9099;47.958;11.366;2023-07-29T14:28:27;24.60;99.90
17948;DHT22;9099;47.958;11.366;2023-07-29T14:30:55;24.40;99.90
17948;DHT22;9099;47.958;11.366;2023-07-29T14:33:22;24.20;99.90
17948;DHT22;9099;47.958;11.366;2023-07-29T14:35:49;24.00;99.90
17948;DHT22;9099;47.958;11.366;2023-07-29T14:38:15;23.80;99.90
17948;DHT22;9099;47.958;11.366;2023-07-29T14:40:42;23.70;99.90
17948;DHT22;9099;47.958;11.366;2023-07-29T14:43:10;23.70;99.90
17948;DHT22;9099;47.958;11.366;2023-07-29T14:45:37;23.60;99.90
17948;DHT22;9099;47.958;11.366;2023-07-29T14:48:04;23.50;99.90
17948;DHT22;9099;47.958;11.366;2023-07-29T14:50:31;23.50;99.90
17948;DHT22;9099;47.958;11.366;2023-07-29T14:52:58;23.40;99.90
17948;DHT22;9099;47.958;11.366;2023-07-29T14:55:25;23.50;99.90
17948;DHT22;9099;47.958;11.366;2023-07-29T14:57:52;23.40;99.90
17948;DHT22;9099;47.958;11.366;2023-07-29T15:00:20;23.30;99.90
17948;DHT22;9099;47.958;11.366;2023-07-29T15:02:47;23.30;99.90
17948;DHT22;9099;47.958;11.366;2023-07-29T15:05:14;23.40;99.90
17948;DHT22;9099;47.958;11.366;2023-07-29T15:07:41;23.40;99.90
17948;DHT22;9099;47.958;11.366;2023-07-29T15:10:08;23.50;99.90
17948;DHT22;9099;47.958;11.366;2023-07-29T15:12:35;23.50;99.90
17948;DHT22;9099;47.958;11.366;2023-07-29T15:15:02;23.70;99.90
17948;DHT22;9099;47.958;11.366;2023-07-29T15:17:30;23.70;99.90
17948;DHT22;9099;47.958;11.366;2023-07-29T15:19:57;23.80;99.90
17948;DHT22;9099;47.958;11.366;2023-07-29T15:22:24;23.70;99.90
17948;DHT22;9099;47.958;11.366;2023-07-29T15:24:50;23.80;99.90
17948;DHT22;9099;47.958;11.366;2023-07-29T15:27:17;23.80;99.90
17948;DHT22;9099;47.958;11.366;2023-07-29T15:29:44;23.90;99.90
17948;DHT22;9099;47.958;11.366;2023-07-29T15:32:11;23.90;99.90
17948;DHT22;9099;47.958;11.366;2023-07-29T15:34:39;23.80;99.90
17948;DHT22;9099;47.958;11.366;2023-07-29T15:37:06;23.80;99.90
17948;DHT22;9099;47.958;11.366;2023-07-29T15:39:33;23.80;99.90